Time;durP1;ratioP1;P1;durP2;ratioP2;P2;SDS_P1;SDS_P2;PMS_P1;PMS_P2;Temp;Humidity;BMP_temperature;BMP_pressure;BME280_temperature;BME280_humidity;BME280_pressure;Samples;Min_cycle;Max_cycle;Signal;HPM_P1;HPM_P2
2022/12/31 00:00:59;;;;;;;;;;;;;;;1.16;89.07;100119.07;106643;1305;22418;-70
2022/12/31 00:03:26;;;;;;;46.90;24.40;;;;;;;1.13;89.16;100123.90;106567;1305;123471;-69
2022/12/31 00:05:53;;;;;;;53.20;29.40;;;;;;;1.09;89.18;100124.73;106636;1304;22131;-68
2022/12/31 00:08:20;;;;;;;47.00;25.40;;;;;;;1.06;89.32;100128.77;106549;1305;137786;-68
2022/12/31 00:10:46;;;;;;;41.90;21.40;;;;;;;1.05;89.39;100124.02;106536;1305;22277;-69
2022/12/31 00:13:13;;;;;;;36.20;19.50;;;;;;;1.05;89.49;100128.31;106503;1297;22154;-69
2022/12/31 00:15:40;;;;;;;;;;;;;;;1.05;89.60;100128.59;106518;1303;139522;-69
2022/12/31 00:18:07;;;;;;;30.50;17.30;;;;;;;1.05;89.70;100130.34;106728;1303;22149;-70
2022/12/31 00:20:34;;;;;;;;;;;;;;;1.04;89.97;100131.55;106509;1304;138096;-68
2022/12/31 00:23:00;;;;;;;33.80;17.40;;;;;;;1.03;90.04;100139.46;106557;1304;22143;-69
2022/12/31 00:25:27;;;;;;;36.80;19.70;;;;;;;1.02;90.11;100141.92;106576;1304;22134;-69
2022/12/31 00:27:54;;;;;;;39.90;21.00;;;;;;;1.01;90.10;100149.05;106471;1288;136927;-69
2022/12/31 00:30:21;;;;;;;35.10;18.60;;;;;;;0.98;90.03;100149.66;103492;1305;22501;-68
2022/12/31 00:32:48;;;;;;;36.20;18.80;;;;;;;0.95;89.89;100151.76;102248;1312;137751;-68
2022/12/31 00:35:14;;;;;;;34.30;18.10;;;;;;;0.93;89.73;100154.15;102277;1312;22506;-69
2022/12/31 00:37:41;;;;;;;34.50;18.00;;;;;;;0.87;89.81;100147.13;102407;1312;25333;-69
2022/12/31 00:40:09;;;;;;;30.70;17.10;;;;;;;0.88;89.76;100153.61;102117;1313;137415;-68
2022/12/31 00:42:35;;;;;;;33.40;17.90;;;;;;;0.87;89.91;100153.47;102321;1307;26690;-68
2022/12/31 00:45:02;;;;;;;30.60;16.60;;;;;;;0.86;90.02;100156.06;102248;1288;138633;-68
2022/12/31 00:47:29;;;;;;;34.30;18.10;;;;;;;0.85;90.21;100156.91;102429;1283;22854;-68
2022/12/31 00:49:56;;;;;;;37.40;17.60;;;;;;;0.84;90.38;100161.15;102278;1296;22609;-68
2022/12/31 00:52:23;;;;;;;41.80;18.30;;;;;;;0.83;90.52;100156.46;102142;1298;139642;-68
2022/12/31 00:54:49;;;;;;;51.70;21.20;;;;;;;0.81;90.31;100154.02;102253;1304;25330;-67
2022/12/31 00:57:16;;;;;;;43.20;20.00;;;;;;;0.80;90.50;100158.15;102146;1304;137471;-67
2022/12/31 00:59:43;;;;;;;53.70;20.50;;;;;;;0.78;90.63;100162.76;102283;1293;22537;-68
2022/12/31 01:02:10;;;;;;;51.60;21.60;;;;;;;0.75;90.55;100165.05;102267;1294;25216;-69
2022/12/31 01:04:37;;;;;;;44.10;20.00;;;;;;;0.71;90.31;100166.61;102068;1296;136865;-68
2022/12/31 01:07:03;;;;;;;37.40;17.70;;;;;;;0.68;90.23;100177.48;102307;1297;25216;-69
2022/12/31 01:09:30;;;;;;;;;;;;;;;0.65;90.34;100176.73;102154;1303;140248;-69
2022/12/31 01:11:57;;;;;;;48.10;18.70;;;;;;;0.63;90.32;100177.14;102257;1296;22978;-68
2022/12/31 01:14:24;;;;;;;37.60;19.40;;;;;;;0.60;90.34;100178.73;102051;1298;139422;-68
2022/12/31 01:16:52;;;;;;;41.80;17.60;;;;;;;0.58;90.18;100183.84;102047;1297;22481;-68
2022/12/31 01:19:24;;;;;;;43.80;20.10;;;;;;;0.55;90.34;100182.36;102133;1296;24366;-68
2022/12/31 01:21:51;;;;;;;56.50;23.70;;;;;;;0.52;90.40;100184.29;106522;1305;137248;-70
2022/12/31 01:24:18;;;;;;;46.50;22.00;;;;;;;0.51;90.64;100184.27;106587;1303;22152;-69
2022/12/31 01:26:44;;;;;;;45.10;22.10;;;;;;;0.46;90.51;100176.67;106402;1305;137453;-70
2022/12/31 01:29:11;;;;;;;;;;;;;;;0.48;90.63;100179.81;106573;1304;23125;-70
2022/12/31 01:31:38;;;;;;;41.30;19.60;;;;;;;0.47;90.72;100177.23;106583;1305;22381;-70
2022/12/31 01:34:05;;;;;;;35.90;17.80;;;;;;;0.47;90.93;100177.48;106462;1295;137374;-70
2022/12/31 01:36:34;;;;;;;;;;;;;;;0.46;90.94;100173.79;106623;1305;23468;-70
2022/12/31 01:39:01;;;;;;;33.50;16.50;;;;;;;0.45;91.07;100178.12;106523;1305;124365;-70
2022/12/31 01:41:40;;;;;;;35.60;16.20;;;;;;;0.49;91.22;100185.94;106720;1297;22894;-68
2022/12/31 01:44:10;;;;;;;30.10;14.60;;;;;;;0.50;91.27;100190.97;106621;1305;22177;-68
2022/12/31 01:46:42;;;;;;;25.80;14.40;;;;;;;0.52;91.33;100189.17;106502;1303;137531;-68
2022/12/31 01:49:16;;;;;;;26.90;15.50;;;;;;;0.51;91.47;100180.05;106608;1305;22825;-68
2022/12/31 01:51:45;;;;;;;25.70;14.40;;;;;;;0.53;91.33;100181.04;106488;1291;137934;-68
2022/12/31 01:54:12;;;;;;;35.80;16.40;;;;;;;0.52;91.29;100182.62;106630;1295;22079;-68
2022/12/31 01:56:38;;;;;;;31.60;15.40;;;;;;;0.50;91.26;100181.31;106586;1302;138523;-68
2022/12/31 01:59:06;;;;;;;24.30;15.30;;;;;;;0.48;91.13;100188.76;106576;1305;22210;-68
2022/12/31 02:01:33;;;;;;;31.80;14.80;;;;;;;0.43;90.83;100192.71;106577;1297;22272;-68
2022/12/31 02:04:04;;;;;;;28.40;16.50;;;;;;;0.40;90.48;100194.05;106391;1305;137662;-69
2022/12/31 02:06:49;;;;;;;36.30;16.60;;;;;;;0.37;90.23;100183.44;106654;1305;22110;-69
2022/12/31 02:09:16;;;;;;;25.70;14.70;;;;;;;0.36;90.22;100185.32;106478;1305;138592;-68
2022/12/31 02:11:42;;;;;;;30.50;15.10;;;;;;;0.36;90.32;100187.46;106630;1296;22208;-68
2022/12/31 02:14:14;;;;;;;24.90;14.60;;;;;;;0.36;90.59;100188.13;106603;1303;22150;-69
2022/12/31 02:16:56;;;;;;;24.30;13.20;;;;;;;0.39;90.84;100193.18;106561;1298;23015;-68
2022/12/31 02:19:47;;;;;;;23.90;13.90;;;;;;;0.42;90.96;100196.33;106608;1305;22128;-69
2022/12/31 02:22:17;;;;;;;29.20;15.30;;;;;;;0.43;91.24;100198.29;106461;1305;138118;-68
2022/12/31 02:24:49;;;;;;;27.30;14.80;;;;;;;0.44;91.33;100197.45;106601;1305;22901;-68
2022/12/31 02:27:31;;;;;;;25.30;14.30;;;;;;;0.41;91.29;100204.23;106415;1304;137493;-69
2022/12/31 02:30:04;;;;;;;25.50;14.00;;;;;;;0.37;90.94;100214.30;106489;1290;22255;-68
2022/12/31 02:32:48;;;;;;;26.20;15.80;;;;;;;0.34;90.82;100216.27;106581;1303;137558;-69
2022/12/31 02:35:24;;;;;;;24.90;15.40;;;;;;;0.32;90.80;100217.02;106687;1303;22876;-70
2022/12/31 02:37:53;;;;;;;27.90;15.60;;;;;;;0.31;90.66;100216.23;106598;1305;22920;-68
2022/12/31 02:40:21;;;;;;;27.70;14.30;;;;;;;0.30;90.71;100213.07;106441;1305;138118;-69
2022/12/31 02:42:47;;;;;;;32.80;14.70;;;;;;;0.27;90.36;100216.77;106531;1305;22189;-69
2022/12/31 02:45:25;;;;;;;27.40;15.60;;;;;;;0.22;89.87;100213.52;106618;1303;137879;-69
2022/12/31 02:48:04;;;;;;;27.80;16.60;;;;;;;0.20;89.86;100217.86;106558;1305;22150;-70
2022/12/31 02:50:33;;;;;;;31.60;14.60;;;;;;;0.17;89.89;100215.34;106491;1289;138096;-68
2022/12/31 02:53:38;;;;;;;25.90;15.70;;;;;;;0.13;89.65;100221.17;106606;1302;22141;-70
2022/12/31 02:56:11;;;;;;;24.20;15.50;;;;;;;0.06;89.39;100223.58;106635;1303;22104;-70
2022/12/31 03:04:32;;;;;;;28.30;16.30;;;;;;;-0.09;89.01;100214.72;106516;1305;124252;-69
2022/12/31 03:07:06;;;;;;;30.80;18.00;;;;;;;-0.09;88.94;100220.23;106541;1305;22418;-69
2022/12/31 03:09:33;;;;;;;32.80;18.40;;;;;;;-0.12;89.14;100218.10;106488;1304;139156;-70
2022/12/31 03:14:45;;;;;;;31.80;18.40;;;;;;;-0.16;88.99;100216.77;106405;1305;139303;-69
2022/12/31 03:17:12;;;;;;;33.10;19.00;;;;;;;-0.18;88.92;100220.27;106620;1304;22130;-69
2022/12/31 03:22:27;;;;;;;33.50;18.40;;;;;;;-0.22;88.75;100217.44;106489;1305;138363;-69
2022/12/31 03:27:45;;;;;;;31.80;19.50;;;;;;;-0.25;88.93;100216.42;106500;1305;138556;-70
2022/12/31 03:30:12;;;;;;;27.80;17.50;;;;;;;-0.31;88.60;100219.54;106736;1296;22186;-70
2022/12/31 03:32:40;;;;;;;31.40;18.50;;;;;;;-0.36;88.31;100219.60;106466;1295;138407;-69
2022/12/31 03:35:07;;;;;;;30.70;17.40;;;;;;;-0.40;88.24;100221.42;106601;1305;23309;-69
2022/12/31 03:37:34;;;;;;;27.70;16.70;;;;;;;-0.41;88.39;100224.86;106678;1304;22246;-69
2022/12/31 03:40:01;;;;;;;29.70;18.20;;;;;;;-0.41;88.57;100225.60;104893;1303;138832;-68
2022/12/31 03:42:28;;;;;;;36.20;20.20;;;;;;;-0.40;89.07;100231.18;102203;1298;24250;-68
2022/12/31 03:44:54;;;;;;;37.70;21.40;;;;;;;-0.38;89.05;100234.94;102161;1295;137956;-69
2022/12/31 03:47:21;;;;;;;39.40;21.00;;;;;;;-0.38;89.51;100230.05;102255;1296;25654;-68
2022/12/31 03:49:48;;;;;;;36.90;18.90;;;;;;;-0.36;89.51;100230.62;102181;1297;24276;-68
2022/12/31 03:52:14;;;;;;;34.20;20.70;;;;;;;-0.36;89.80;100230.05;102161;1304;137770;-68
2022/12/31 03:54:41;;;;;;;33.80;19.30;;;;;;;-0.35;89.85;100228.88;102142;1288;24409;-68
2022/12/31 03:57:08;;;;;;;;;;;;;;;-0.34;90.38;100241.46;102153;1304;139006;-68
2022/12/31 03:59:35;;;;;;;39.00;23.80;;;;;;;-0.33;90.32;100235.01;102295;1305;22474;-69
2022/12/31 04:02:02;;;;;;;39.00;20.00;;;;;;;-0.33;90.59;100236.04;102223;1297;24087;-68
2022/12/31 04:04:29;;;;;;;32.00;16.60;;;;;;;-0.31;90.94;100240.13;102047;1289;139697;-67
2022/12/31 04:06:56;;;;;;;;;;;;;;;-0.28;91.24;100237.83;102219;1287;24067;-67
2022/12/31 04:09:22;;;;;;;32.00;19.40;;;;;;;-0.25;91.51;100237.48;102049;1299;124503;-68
2022/12/31 04:11:49;;;;;;;;;;;;;;;-0.22;92.16;100238.95;102338;1295;22459;-67
2022/12/31 04:14:16;;;;;;;36.50;20.60;;;;;;;-0.19;92.44;100245.31;102292;1312;124306;-67
2022/12/31 04:16:43;;;;;;;;;;;;;;;-0.16;92.85;100247.89;102299;1287;23853;-67
2022/12/31 04:19:11;;;;;;;32.80;18.20;;;;;;;-0.14;93.06;100247.96;106358;1312;22122;-68
2022/12/31 04:21:38;;;;;;;;;;;;;;;-0.12;93.39;100252.58;106489;1297;137831;-68
2022/12/31 04:24:05;;;;;;;30.30;17.10;;;;;;;-0.09;93.42;100252.58;106565;1299;22132;-68
2022/12/31 04:26:32;;;;;;;26.80;16.80;;;;;;;-0.05;93.79;100251.93;106593;1303;138939;-68
2022/12/31 04:28:59;;;;;;;;;;;;;;;-0.04;94.02;100247.91;106576;1305;22435;-68
2022/12/31 04:31:26;;;;;;;22.60;14.70;;;;;;;0.04;94.31;100254.05;106572;1303;22232;-68
2022/12/31 04:33:52;;;;;;;;;;;;;;;0.08;94.40;100247.51;106475;1304;139280;-68
2022/12/31 04:36:19;;;;;;;30.70;17.60;;;;;;;0.13;94.80;100249.77;106672;1296;22198;-68
2022/12/31 04:38:46;;;;;;;;;;;;;;;0.17;94.88;100249.65;106530;1294;138728;-68
2022/12/31 04:41:15;;;;;;;31.70;17.10;;;;;;;0.21;95.07;100257.74;106595;1305;22155;-68
2022/12/31 04:43:44;;;;;;;29.10;17.50;;;;;;;0.25;95.11;100259.25;106649;1303;22158;-68
2022/12/31 04:46:10;;;;;;;27.20;17.40;;;;;;;0.25;95.38;100257.73;106417;1298;138133;-69
2022/12/31 04:48:37;;;;;;;39.20;23.00;;;;;;;0.32;95.40;100269.92;106616;1305;22107;-69
2022/12/31 04:51:04;;;;;;;34.80;20.60;;;;;;;0.34;95.29;100276.28;106598;1303;138872;-69
2022/12/31 04:53:31;;;;;;;36.00;21.80;;;;;;;0.37;95.32;100281.54;106633;1305;22172;-69
2022/12/31 04:55:57;;;;;;;39.60;22.10;;;;;;;0.38;95.32;100282.01;106587;1296;22215;-68
2022/12/31 04:58:24;;;;;;;39.40;21.70;;;;;;;0.38;95.34;100285.66;106472;1305;138586;-69
2022/12/31 05:00:53;;;;;;;40.30;21.40;;;;;;;0.40;95.00;100288.63;106669;1297;23066;-69
2022/12/31 05:03:21;;;;;;;34.30;20.60;;;;;;;0.42;95.20;100285.27;106571;1304;139540;-69
2022/12/31 05:05:48;;;;;;;38.30;22.30;;;;;;;0.44;95.15;100286.30;106602;1303;22227;-69
2022/12/31 05:08:16;;;;;;;39.90;22.80;;;;;;;0.46;95.16;100288.33;106696;1303;22249;-69
2022/12/31 05:10:47;;;;;;;37.40;20.40;;;;;;;0.47;95.36;100295.73;106601;1305;22150;-69
2022/12/31 05:13:14;;;;;;;46.90;24.40;;;;;;;0.48;95.27;100303.10;106702;1303;22322;-68
2022/12/31 05:15:40;;;;;;;;;;;;;;;0.50;95.17;100307.75;106512;1290;138280;-69
2022/12/31 05:18:07;;;;;;;41.30;22.80;;;;;;;0.52;95.24;100314.69;106661;1303;23098;-69
2022/12/31 05:20:34;;;;;;;37.40;22.60;;;;;;;0.51;95.13;100314.89;106596;1303;138316;-69
2022/12/31 05:23:01;;;;;;;;;;;;;;;0.51;95.24;100315.09;106576;1304;22360;-69
2022/12/31 05:25:27;;;;;;;42.50;21.10;;;;;;;0.51;95.10;100310.54;106601;1304;22220;-69
2022/12/31 05:27:54;;;;;;;37.60;19.90;;;;;;;0.44;95.11;100306.56;106466;1305;138606;-69
2022/12/31 05:30:21;;;;;;;38.60;22.90;;;;;;;0.45;94.90;100307.80;106580;1303;22300;-68
2022/12/31 05:33:07;;;;;;;46.50;24.00;;;;;;;0.42;95.01;100311.55;103441;1288;138892;-68
2022/12/31 05:35:34;;;;;;;34.40;20.10;;;;;;;0.40;94.77;100304.79;102224;1304;22879;-69
2022/12/31 05:38:00;;;;;;;34.20;21.10;;;;;;;0.37;94.76;100296.35;102263;1312;22608;-68
2022/12/31 05:40:27;;;;;;;33.80;19.20;;;;;;;0.34;94.88;100299.99;102379;1312;139522;-67
2022/12/31 05:42:54;;;;;;;31.70;18.50;;;;;;;0.33;94.83;100303.23;102414;1303;22549;-68
2022/12/31 05:45:21;;;;;;;29.80;18.40;;;;;;;0.30;94.85;100305.09;102318;1298;138255;-68
2022/12/31 05:47:56;;;;;;;40.30;20.40;;;;;;;0.28;95.04;100303.59;102274;1312;25841;-68
2022/12/31 05:50:22;;;;;;;;;;;;;;;0.25;94.95;100300.89;102172;1312;137440;-68
2022/12/31 05:52:53;;;;;;;33.60;18.90;;;;;;;0.18;94.99;100298.09;102392;1295;24120;-67
2022/12/31 05:55:19;;;;;;;30.40;19.30;;;;;;;0.16;95.00;100298.66;102332;1296;22552;-66
2022/12/31 05:57:46;;;;;;;;;;;;;;;0.16;95.00;100302.46;102083;1312;137691;-68
2022/12/31 06:00:13;;;;;;;30.70;18.20;;;;;;;0.11;94.93;100304.07;102216;1288;24192;-66
2022/12/31 06:02:40;;;;;;;23.90;16.20;;;;;;;0.07;95.01;100301.55;102173;1294;137683;-68
2022/12/31 06:05:07;;;;;;;;;;;;;;;0.03;95.11;100307.45;102287;1307;25251;-68
2022/12/31 06:07:34;;;;;;;24.10;15.80;;;;;;;-0.01;94.88;100307.21;102242;1298;22605;-69
2022/12/31 06:10:04;;;;;;;25.30;16.70;;;;;;;-0.05;94.86;100308.55;102152;1295;138257;-67
2022/12/31 06:12:30;;;;;;;24.30;15.20;;;;;;;-0.08;95.04;100313.14;106533;1297;22216;-68
2022/12/31 06:14:57;;;;;;;29.20;16.90;;;;;;;-0.08;95.41;100313.52;106508;1291;138658;-68
2022/12/31 06:17:24;;;;;;;39.80;20.50;;;;;;;-0.07;95.35;100308.80;106598;1305;22154;-68
2022/12/31 06:19:51;;;;;;;44.60;22.30;;;;;;;-0.06;95.48;100313.52;106617;1290;22882;-67
2022/12/31 06:22:18;;;;;;;35.00;20.00;;;;;;;-0.08;95.38;100308.39;106521;1305;139051;-68
2022/12/31 06:24:45;;;;;;;32.60;18.30;;;;;;;-0.03;95.52;100311.60;106606;1305;22203;-68
2022/12/31 06:27:12;;;;;;;;;;;;;;;-0.02;95.71;100308.05;106501;1305;139806;-68
2022/12/31 06:29:39;;;;;;;28.60;17.00;;;;;;;-0.02;95.53;100313.75;106622;1305;23121;-68
2022/12/31 06:32:05;;;;;;;30.30;18.40;;;;;;;-0.02;95.75;100311.50;106625;1295;22165;-68
2022/12/31 06:34:32;;;;;;;32.80;20.60;;;;;;;-0.06;95.82;100310.60;106532;1305;137288;-68
2022/12/31 06:36:59;;;;;;;;;;;;;;;-0.03;95.87;100315.09;106693;1295;23114;-68
2022/12/31 06:39:26;;;;;;;28.50;20.20;;;;;;;-0.06;96.06;100304.25;105945;1305;124799;-68
2022/12/31 06:41:53;;;;;;;;;;;;;;;-0.01;95.88;100307.05;102318;1312;25370;-67
2022/12/31 06:44:21;;;;;;;32.80;20.20;;;;;;;-0.01;96.18;100308.26;102165;1304;125336;-68
2022/12/31 06:46:48;;;;;;;33.50;20.20;;;;;;;-0.01;96.15;100314.32;106273;1312;22226;-68
2022/12/31 06:49:15;;;;;;;38.50;22.10;;;;;;;0.01;96.18;100320.75;106626;1297;22108;-68
2022/12/31 06:51:44;;;;;;;38.40;24.30;;;;;;;0.03;96.34;100327.52;106483;1305;138812;-68
2022/12/31 06:54:12;;;;;;;31.50;21.30;;;;;;;0.06;96.66;100335.52;106582;1305;22120;-68
2022/12/31 06:56:39;;;;;;;33.00;19.70;;;;;;;0.10;96.69;100336.19;106580;1304;140709;-69
2022/12/31 06:59:23;;;;;;;34.50;22.50;;;;;;;0.13;96.91;100341.77;106653;1301;22605;-69
2022/12/31 07:02:02;;;;;;;40.50;23.50;;;;;;;0.15;96.90;100345.05;106604;1305;23260;-69
2022/12/31 07:05:14;;;;;;;38.40;24.90;;;;;;;0.17;96.90;100337.23;106465;1304;138838;-69
2022/12/31 07:07:50;;;;;;;33.70;21.90;;;;;;;0.18;96.95;100336.86;106277;1303;22232;-68
2022/12/31 07:10:35;;;;;;;33.50;22.80;;;;;;;0.20;97.14;100338.64;106107;1309;138256;-68
2022/12/31 07:13:20;;;;;;;34.80;22.20;;;;;;;0.21;96.87;100334.91;106227;1310;22178;-68
2022/12/31 07:15:59;;;;;;;36.30;23.00;;;;;;;0.23;96.95;100333.30;106204;1308;138922;-68
2022/12/31 07:19:01;;;;;;;39.50;23.60;;;;;;;0.20;96.96;100324.88;106239;1308;22395;-69
2022/12/31 07:21:33;;;;;;;40.30;24.00;;;;;;;0.27;96.98;100328.42;106125;1292;140204;-66
2022/12/31 07:24:01;;;;;;;36.90;22.50;;;;;;;0.27;97.11;100327.81;106145;1311;22864;-67
2022/12/31 07:26:46;;;;;;;41.30;23.40;;;;;;;0.29;97.18;100330.60;106029;1307;138656;-67
2022/12/31 07:29:24;;;;;;;35.60;22.30;;;;;;;0.32;97.38;100336.39;106169;1309;22378;-68
2022/12/31 07:32:01;;;;;;;40.60;24.70;;;;;;;0.35;97.30;100338.36;106227;1309;22182;-66
2022/12/31 07:34:40;;;;;;;43.80;26.20;;;;;;;0.40;97.71;100339.29;105946;1294;137665;-66
2022/12/31 07:37:58;;;;;;;42.20;26.30;;;;;;;0.45;97.88;100332.98;106075;1311;22262;-66
2022/12/31 07:41:04;;;;;;;39.70;23.10;;;;;;;0.50;97.90;100332.42;102775;1319;137596;-66
2022/12/31 07:44:26;;;;;;;40.60;23.40;;;;;;;0.55;97.91;100330.58;100946;1300;25441;-66
2022/12/31 07:46:58;;;;;;;39.40;25.00;;;;;;;0.60;98.35;100334.08;100996;1314;22592;-66
2022/12/31 07:49:25;;;;;;;38.40;24.80;;;;;;;0.63;98.21;100333.16;105235;1299;22206;-67
2022/12/31 07:51:53;;;;;;;35.20;24.40;;;;;;;0.68;98.41;100339.42;105565;1315;138353;-68
2022/12/31 07:54:20;;;;;;;41.50;27.30;;;;;;;0.74;98.43;100336.67;105678;1314;23172;-68
2022/12/31 07:56:47;;;;;;;52.50;34.30;;;;;;;0.79;98.42;100333.44;105535;1317;138506;-67
2022/12/31 07:59:22;;;;;;;55.80;36.20;;;;;;;0.83;98.50;100338.41;105501;1314;22180;-66
2022/12/31 08:02:31;;;;;;;56.30;35.70;;;;;;;0.89;98.58;100343.30;105664;1314;22188;-68
2022/12/31 08:05:01;;;;;;;49.20;33.00;;;;;;;0.97;98.65;100350.42;104969;1323;22397;-67
2022/12/31 08:08:03;;;;;;;59.30;31.60;;;;;;;1.02;98.94;100350.30;105083;1319;22343;-67
2022/12/31 08:10:51;;;;;;;47.60;30.20;;;;;;;1.09;98.96;100339.71;104913;1317;139311;-68
2022/12/31 08:13:17;;;;;;;48.70;31.40;;;;;;;1.16;98.93;100338.39;105029;1319;22345;-68
2022/12/31 08:15:44;;;;;;;44.30;29.60;;;;;;;1.22;99.03;100336.41;105243;1310;138107;-67
2022/12/31 08:18:11;;;;;;;47.00;28.50;;;;;;;1.29;99.05;100342.10;105459;1316;23168;-67
2022/12/31 08:20:53;;;;;;;51.10;28.20;;;;;;;1.30;99.15;100333.33;105413;1312;139712;-67
2022/12/31 08:23:38;;;;;;;42.70;25.90;;;;;;;1.40;99.12;100342.13;106029;1311;23474;-67
2022/12/31 08:26:12;;;;;;;43.30;26.90;;;;;;;1.48;99.17;100348.44;106151;1310;23151;-67
2022/12/31 08:28:53;;;;;;;43.20;26.30;;;;;;;1.55;99.38;100343.71;106026;1310;139289;-67
2022/12/31 08:31:48;;;;;;;40.70;26.50;;;;;;;1.65;99.59;100341.98;106124;1302;23081;-67
2022/12/31 08:34:33;;;;;;;41.20;26.20;;;;;;;1.77;99.94;100340.83;105572;1314;138864;-67
2022/12/31 08:37:05;;;;;;;46.50;27.00;;;;;;;1.86;100.00;100331.17;105787;1314;22200;-67
2022/12/31 08:39:49;;;;;;;46.30;27.30;;;;;;;2.01;100.00;100333.48;104499;1315;138803;-66
2022/12/31 08:42:24;;;;;;;54.40;29.40;;;;;;;2.13;100.00;100327.76;101343;1299;24531;-69
2022/12/31 08:45:00;;;;;;;48.10;27.80;;;;;;;2.19;100.00;100317.67;101341;1318;141169;-69
2022/12/31 08:48:04;;;;;;;43.10;27.00;;;;;;;2.34;100.00;100319.25;101506;1303;22511;-70
2022/12/31 08:50:31;;;;;;;47.90;28.90;;;;;;;2.46;100.00;100314.09;101384;1303;138460;-69
2022/12/31 08:52:59;;;;;;;90.20;49.90;;;;;;;2.55;100.00;100308.41;101566;1294;24400;-67
2022/12/31 08:55:26;;;;;;;67.50;39.60;;;;;;;2.63;100.00;100305.70;101686;1303;22504;-67
2022/12/31 08:58:05;;;;;;;111.90;54.70;;;;;;;2.71;100.00;100303.95;105641;1316;137675;-68
2022/12/31 09:00:32;;;;;;;80.80;39.60;;;;;;;2.81;100.00;100292.69;105922;1311;22955;-68
2022/12/31 09:03:17;;;;;;;;;;;;;;;2.93;100.00;100294.55;106025;1311;138665;-68
2022/12/31 09:06:07;;;;;;;45.20;26.10;;;;;;;3.04;100.00;100290.88;105961;1298;22280;-68
2022/12/31 09:08:50;;;;;;;43.20;25.90;;;;;;;3.16;100.00;100285.38;105760;1306;138883;-67
2022/12/31 09:11:42;;;;;;;58.40;32.20;;;;;;;3.29;100.00;100288.91;106125;1305;22190;-66
2022/12/31 09:14:14;;;;;;;65.50;33.90;;;;;;;3.41;100.00;100293.99;106589;1294;22397;-67
2022/12/31 09:16:45;;;;;;;54.60;26.60;;;;;;;3.52;100.00;100290.65;106577;1297;139007;-67
2022/12/31 09:19:11;;;;;;;40.90;24.30;;;;;;;3.63;100.00;100287.80;106773;1302;22135;-67
2022/12/31 09:21:43;;;;;;;;;;;;;;;3.73;100.00;100283.33;106531;1302;138497;-66
2022/12/31 09:24:12;;;;;;;73.70;35.60;;;;;;;3.84;100.00;100287.86;106695;1302;23464;-67
2022/12/31 09:27:00;;;;;;;63.20;31.70;;;;;;;3.94;100.00;100284.73;106596;1302;139013;-66
2022/12/31 09:29:39;;;;;;;46.80;23.80;;;;;;;4.06;100.00;100280.13;106604;1305;23326;-67
2022/12/31 09:32:25;;;;;;;32.90;19.80;;;;;;;4.17;100.00;100272.40;106665;1305;22119;-67
2022/12/31 09:35:10;;;;;;;36.10;21.20;;;;;;;4.28;100.00;100268.95;106582;1305;22310;-67
2022/12/31 09:37:39;;;;;;;28.80;18.00;;;;;;;4.38;100.00;100266.18;106620;1302;22167;-67
2022/12/31 09:40:31;;;;;;;33.60;21.10;;;;;;;4.44;99.97;100265.39;104807;1305;137972;-65
2022/12/31 09:43:17;;;;;;;32.70;19.40;;;;;;;4.58;99.83;100271.77;102257;1287;24880;-65
2022/12/31 09:46:10;;;;;;;31.30;18.10;;;;;;;4.67;99.42;100274.11;102262;1289;140100;-65
2022/12/31 09:48:59;;;;;;;31.00;19.90;;;;;;;4.76;99.26;100272.58;102284;1298;24442;-65
2022/12/31 09:51:30;;;;;;;30.60;18.30;;;;;;;4.83;99.00;100271.02;102187;1296;139075;-65
2022/12/31 09:54:06;;;;;;;43.00;25.60;;;;;;;4.91;98.60;100268.06;102282;1288;25178;-67
2022/12/31 09:57:18;;;;;;;57.80;29.50;;;;;;;4.98;97.87;100258.69;102257;1297;139736;-66
2022/12/31 09:59:46;;;;;;;40.90;22.80;;;;;;;5.06;97.26;100249.69;101814;1310;22634;-66
2022/12/31 10:02:17;;;;;;;34.80;20.00;;;;;;;5.09;96.88;100241.27;101997;1307;25076;-66
2022/12/31 10:04:56;;;;;;;32.00;19.60;;;;;;;5.14;96.58;100239.70;101850;1309;137831;-65
2022/12/31 10:07:37;;;;;;;42.90;24.60;;;;;;;5.18;96.29;100234.81;101836;1300;26031;-66
2022/12/31 10:10:17;;;;;;;52.00;27.90;;;;;;;5.22;96.00;100233.73;101717;1315;138231;-66
2022/12/31 10:12:51;;;;;;;51.20;28.60;;;;;;;5.26;95.41;100226.79;101629;1313;25096;-66
2022/12/31 10:15:39;;;;;;;41.10;23.90;;;;;;;5.31;95.11;100220.73;101623;1303;138505;-65
2022/12/31 10:18:24;;;;;;;;;;;;;;;5.36;94.44;100219.60;101811;1293;22817;-66
2022/12/31 10:20:51;;;;;;;37.80;20.10;;;;;;;5.40;94.17;100207.93;101754;1301;125497;-65
2022/12/31 10:23:33;;;;;;;31.80;19.20;;;;;;;5.44;94.07;100199.34;101749;1301;22497;-66
2022/12/31 15:35:21;;;;;;;49.20;32.50;;;;;;;4.32;94.71;100071.80;99906;1312;557594;-61
2022/12/31 15:37:59;;;;;;;52.80;31.00;;;;;;;4.50;94.42;100065.69;101068;1323;82206;-61
2022/12/31 15:40:27;;;;;;;42.20;25.50;;;;;;;4.55;94.14;100061.09;105227;1323;139623;-62
2022/12/31 15:43:03;;;;;;;41.60;25.20;;;;;;;4.59;94.20;100062.64;105772;1313;23088;-62
2022/12/31 15:45:38;;;;;;;37.00;23.40;;;;;;;4.62;94.13;100059.14;105766;1317;22165;-61
2022/12/31 15:48:07;;;;;;;43.20;24.60;;;;;;;4.64;93.88;100056.58;105632;1317;137977;-61
2022/12/31 15:50:35;;;;;;;57.70;29.20;;;;;;;4.64;93.89;100061.27;105744;1316;22150;-61
2022/12/31 15:53:02;;;;;;;68.40;35.40;;;;;;;4.70;93.87;100071.00;105637;1316;138399;-62
2022/12/31 15:55:32;;;;;;;49.00;26.90;;;;;;;4.73;93.86;100070.55;105752;1316;22173;-62
2022/12/31 15:58:04;;;;;;;45.40;25.30;;;;;;;4.76;93.21;100069.70;105540;1316;23059;-61
2022/12/31 16:00:57;;;;;;;47.50;24.60;;;;;;;4.78;93.42;100063.84;105627;1316;139521;-61
2022/12/31 16:03:25;;;;;;;49.90;24.20;;;;;;;4.82;93.15;100058.54;105638;1316;22161;-61
2022/12/31 16:06:08;;;;;;;47.50;23.30;;;;;;;4.84;93.10;100058.21;105545;1307;138383;-61
2022/12/31 16:08:35;;;;;;;54.70;27.70;;;;;;;4.86;92.94;100057.42;105532;1313;22180;-61
2022/12/31 16:11:03;;;;;;;59.90;26.80;;;;;;;4.88;92.93;100056.92;105617;1315;138372;-60
2022/12/31 16:13:30;;;;;;;48.50;24.90;;;;;;;4.89;92.82;100053.15;105716;1315;22978;-60
2022/12/31 16:16:07;;;;;;;;;;;;;;;4.90;92.48;100050.65;105758;1316;22378;-61
2022/12/31 16:18:38;;;;;;;41.50;23.40;;;;;;;4.90;92.27;100050.15;105786;1301;22750;-61
2022/12/31 16:21:05;;;;;;;46.00;25.20;;;;;;;4.88;91.70;100043.77;105751;1321;22204;-60
2022/12/31 16:23:32;;;;;;;41.10;22.60;;;;;;;4.87;91.71;100044.55;105495;1318;137492;-61
2022/12/31 16:26:07;;;;;;;40.80;23.30;;;;;;;4.85;91.79;100047.20;106072;1312;22344;-61
2022/12/31 16:28:34;;;;;;;44.60;23.20;;;;;;;4.86;91.62;100048.11;105850;1313;140298;-60
2022/12/31 16:31:01;;;;;;;50.60;24.20;;;;;;;4.86;91.69;100043.00;105829;1312;22854;-61
2022/12/31 16:33:29;;;;;;;44.10;23.30;;;;;;;4.86;91.71;100039.81;106086;1310;22976;-61
2022/12/31 16:35:56;;;;;;;50.10;24.00;;;;;;;4.87;91.50;100036.62;105998;1312;138353;-60
2022/12/31 16:38:34;;;;;;;40.10;23.20;;;;;;;4.88;91.61;100031.59;106102;1304;22112;-61
2022/12/31 16:41:00;;;;;;;;;;;;;;;4.89;91.96;100025.07;102531;1313;138103;-60
2022/12/31 16:43:40;;;;;;;43.70;23.60;;;;;;;4.91;91.97;100023.56;101489;1319;23623;-61
2022/12/31 16:46:10;;;;;;;42.50;23.60;;;;;;;4.91;91.45;100014.48;101462;1301;138065;-61
2022/12/31 16:48:37;;;;;;;42.10;23.40;;;;;;;4.90;91.72;100013.14;105650;1317;22918;-62
2022/12/31 16:51:04;;;;;;;40.90;24.10;;;;;;;4.92;91.71;100018.81;106121;1312;23136;-62
2022/12/31 16:53:31;;;;;;;;;;;;;;;4.91;91.35;100019.98;105988;1304;139055;-62
2022/12/31 16:56:07;;;;;;;37.80;23.70;;;;;;;4.90;91.18;100021.41;106123;1312;22248;-62
2022/12/31 16:58:36;;;;;;;38.30;22.80;;;;;;;4.88;91.48;100022.17;105988;1312;138657;-62